createdAt,value
2018-10-05T00:00:58.184Z,0.92
2018-10-05T00:06:53.176Z,0.85
2018-10-05T00:12:48.240Z,0.85
2018-10-05T00:18:43.211Z,1.1
2018-10-05T00:24:38.209Z,1.08
2018-10-05T00:30:33.202Z,0.95
2018-10-05T00:36:28.203Z,0.91
2018-10-05T00:42:23.253Z,1.03
2018-10-05T00:48:18.204Z,0.96
2018-10-05T00:54:13.190Z,1.12
2018-10-05T01:00:08.229Z,1.07
2018-10-05T01:06:03.230Z,0.94
2018-10-05T01:11:58.221Z,1
2018-10-05T01:17:53.221Z,1.11
2018-10-05T01:23:48.236Z,1.2
2018-10-05T01:29:43.234Z,1.16
2018-10-05T01:35:38.212Z,1.38
2018-10-05T01:41:33.242Z,1.17
2018-10-05T01:47:28.279Z,0.97
2018-10-05T01:53:23.261Z,1.27
2018-10-05T01:59:18.253Z,1.24
2018-10-05T02:05:13.253Z,1.24
2018-10-05T02:11:08.246Z,1.21
2018-10-05T02:17:03.272Z,1.2
2018-10-05T02:22:58.261Z,1.55
2018-10-05T02:28:53.308Z,1.12
2018-10-05T02:34:48.285Z,1.49
2018-10-05T02:40:43.272Z,1.19
2018-10-05T02:46:38.282Z,1.2
2018-10-05T02:52:33.302Z,1.34
2018-10-05T02:58:28.275Z,1.28
2018-10-05T03:04:23.312Z,1.4
2018-10-05T03:10:18.298Z,1.13
2018-10-05T03:16:13.308Z,1.54
2018-10-05T03:22:08.283Z,1.27
2018-10-05T03:28:03.371Z,1.44
2018-10-05T03:33:58.312Z,1.06
2018-10-05T03:39:53.299Z,1.36
2018-10-05T03:45:48.299Z,1.4
2018-10-05T03:51:43.368Z,1.47
2018-10-05T03:57:38.386Z,1.28
2018-10-05T04:03:33.330Z,1.09
2018-10-05T04:09:28.343Z,1.35
2018-10-05T04:15:23.327Z,1.23
2018-10-05T04:21:18.337Z,1.47
2018-10-05T04:27:13.476Z,1.7
2018-10-05T04:33:08.341Z,1.46
2018-10-05T04:39:03.349Z,1.37
2018-10-05T04:44:58.351Z,1.43
2018-10-05T04:50:53.398Z,1.59
2018-10-05T04:56:48.446Z,1.58
2018-10-05T05:02:43.361Z,1.58
2018-10-05T05:08:38.366Z,1.84
2018-10-05T05:14:33.386Z,1.67
2018-10-05T05:20:28.412Z,1.53
2018-10-05T05:26:23.385Z,1.6
2018-10-05T05:32:18.454Z,1.66
2018-10-05T05:38:13.372Z,1.52
2018-10-05T05:44:08.392Z,1.83
2018-10-05T05:50:03.406Z,1.42
2018-10-05T05:55:58.438Z,1.69
2018-10-05T06:01:53.400Z,1.63
2018-10-05T06:07:48.442Z,1.64
2018-10-05T06:13:43.421Z,1.87
2018-10-05T06:19:38.413Z,1.84
2018-10-05T06:25:33.419Z,1.84
2018-10-05T06:31:28.493Z,1.99
2018-10-05T06:37:23.459Z,2.05
2018-10-05T06:43:18.458Z,1.83
2018-10-05T06:49:13.450Z,1.79
2018-10-05T06:55:08.437Z,1.82
2018-10-05T07:01:03.434Z,1.77
2018-10-05T07:06:58.496Z,2.07
2018-10-05T07:12:53.448Z,2.03
2018-10-05T07:18:48.455Z,1.71
2018-10-05T07:24:43.458Z,1.99
2018-10-05T07:30:38.463Z,1.87
2018-10-05T07:36:33.478Z,1.85
2018-10-05T07:42:28.513Z,1.91
2018-10-05T07:48:23.461Z,2.07
2018-10-05T07:54:18.471Z,1.91
2018-10-05T08:00:13.492Z,1.89
2018-10-05T08:06:08.498Z,1.75
2018-10-05T08:12:03.568Z,2.13
2018-10-05T08:17:58.514Z,1.93
2018-10-05T08:23:53.510Z,1.8
2018-10-05T08:29:48.491Z,1.87
2018-10-05T08:35:43.531Z,1.79
2018-10-05T08:41:38.504Z,1.97
2018-10-05T08:47:33.544Z,1.56
2018-10-05T08:53:28.533Z,1.95
2018-10-05T08:59:23.526Z,1.95
2018-10-05T09:05:18.534Z,2.3
2018-10-05T09:11:13.604Z,2.32
2018-10-05T09:17:08.530Z,2.28
2018-10-05T09:23:03.600Z,1.81
2018-10-05T09:28:58.634Z,1.95
2018-10-05T09:34:53.542Z,1.78
2018-10-05T09:40:48.564Z,2.01
2018-10-05T09:46:43.582Z,1.96
2018-10-05T09:52:38.683Z,2.25
2018-10-05T09:58:33.584Z,2.1
2018-10-05T10:04:28.585Z,2.13
2018-10-05T10:10:23.584Z,2.06
2018-10-05T10:16:18.585Z,1.9
2018-10-05T10:22:13.606Z,1.87
2018-10-05T10:28:08.674Z,2.08
2018-10-05T10:34:03.619Z,1.78
2018-10-05T10:39:58.725Z,1.96
2018-10-05T10:45:53.625Z,2.13
2018-10-05T10:51:48.644Z,1.9
2018-10-05T10:57:43.640Z,1.93
2018-10-05T11:03:38.631Z,2.05
2018-10-05T11:09:33.626Z,2.1
2018-10-05T11:15:28.685Z,1.99
2018-10-05T11:21:23.658Z,1.84
2018-10-05T11:27:18.642Z,1.9
2018-10-05T11:33:13.649Z,2.29
2018-10-05T11:39:08.679Z,2.54
2018-10-05T11:45:03.654Z,2.36
2018-10-05T11:50:58.659Z,2.19
2018-10-05T11:56:53.660Z,2.4
2018-10-05T12:02:48.667Z,2.11
2018-10-05T12:08:43.661Z,2.19
2018-10-05T12:14:38.682Z,2.07
2018-10-05T12:20:33.718Z,2.05
2018-10-05T12:26:28.752Z,2.05
2018-10-05T12:32:23.732Z,2.04
2018-10-05T12:38:18.690Z,1.94
2018-10-05T12:44:13.719Z,2.72
2018-10-05T12:50:08.757Z,2.47
2018-10-05T12:56:03.738Z,2.33
2018-10-05T13:01:58.710Z,2.28
2018-10-05T13:07:53.708Z,2.12
2018-10-05T13:13:48.729Z,2.21
2018-10-05T13:19:43.751Z,2.22
2018-10-05T13:25:38.729Z,2.66
2018-10-05T13:31:33.778Z,2.76
2018-10-05T13:37:28.916Z,2.76
2018-10-05T13:43:23.737Z,3.57
2018-10-05T13:49:18.777Z,2.92
2018-10-05T13:55:13.750Z,3.01
2018-10-05T14:01:08.767Z,3.19
2018-10-05T14:07:03.865Z,3.05
2018-10-05T14:12:58.752Z,3.4
2018-10-05T14:18:53.765Z,3.7
2018-10-05T14:24:48.793Z,2.72
2018-10-05T14:30:43.795Z,3.37
2018-10-05T14:36:38.774Z,2.87
2018-10-05T14:42:33.801Z,3.33
2018-10-05T14:48:28.800Z,3.08
2018-10-05T14:54:23.819Z,3.04
2018-10-05T15:00:18.784Z,2.56
2018-10-05T15:06:13.833Z,2.97
2018-10-05T15:12:08.787Z,2.79
2018-10-05T15:18:03.819Z,3.27
2018-10-05T15:23:58.834Z,2.75
2018-10-05T15:29:53.822Z,2.52
2018-10-05T15:35:48.833Z,2.41
2018-10-05T15:41:43.859Z,2.5
2018-10-05T15:47:38.843Z,2.56
2018-10-05T15:53:33.838Z,2.22
2018-10-05T15:59:28.876Z,2.39
2018-10-05T16:05:23.912Z,2.24
2018-10-05T16:11:18.876Z,2.37
2018-10-05T16:17:13.918Z,2.66
2018-10-05T16:23:08.873Z,2.32
2018-10-05T16:29:03.902Z,2.84
2018-10-05T16:34:58.912Z,2.87
2018-10-05T16:40:53.869Z,3.03
2018-10-05T16:46:48.904Z,2.98
2018-10-05T16:52:43.885Z,3.06
2018-10-05T16:58:38.926Z,3.48
2018-10-05T17:04:33.880Z,3.41
2018-10-05T17:10:28.979Z,3.58
2018-10-05T17:16:23.972Z,3.51
2018-10-05T17:22:18.897Z,3.58
2018-10-05T17:28:13.906Z,3.55
2018-10-05T17:34:08.903Z,3.7
2018-10-05T17:40:03.909Z,3.53
2018-10-05T17:45:58.959Z,3.19
2018-10-05T17:51:53.946Z,3.45
2018-10-05T17:57:48.966Z,3.28
2018-10-05T18:03:43.910Z,3.37
2018-10-05T18:09:38.912Z,3.12
2018-10-05T18:15:33.936Z,3.39
2018-10-05T18:21:28.967Z,4.4
2018-10-05T18:27:23.967Z,3.93
2018-10-05T18:33:18.935Z,4.1
2018-10-05T18:39:13.946Z,4.17
2018-10-05T18:45:08.951Z,4.81
2018-10-05T18:51:03.982Z,4.33
2018-10-05T18:56:58.949Z,3.79
2018-10-05T19:02:53.973Z,3.78
2018-10-05T19:08:48.978Z,3.92
2018-10-05T19:14:43.993Z,4.09
2018-10-05T19:20:38.986Z,3.2
2018-10-05T19:26:34.248Z,3.27
2018-10-05T19:32:29.045Z,3.43
2018-10-05T19:38:23.987Z,3.1
2018-10-05T19:44:18.984Z,3.14
2018-10-05T19:50:13.972Z,2.95
2018-10-05T19:56:09.087Z,3.05
2018-10-05T20:02:04.094Z,3.29
2018-10-05T20:07:59.008Z,3.05
2018-10-05T20:13:54.015Z,3.49
2018-10-05T20:19:49.009Z,3.52
2018-10-05T20:25:44.062Z,3.28
2018-10-05T20:31:39.025Z,3.22
2018-10-05T20:37:34.322Z,4.17
2018-10-05T20:43:29.108Z,3.68
2018-10-05T20:49:24.042Z,3.56
2018-10-05T20:55:19.048Z,3.47
2018-10-05T21:01:14.050Z,3.16
2018-10-05T21:07:09.072Z,3.33
2018-10-05T21:13:04.051Z,3.4
2018-10-05T21:18:59.044Z,3.84
2018-10-05T21:24:54.072Z,4.29
2018-10-05T21:30:49.102Z,3.81
2018-10-05T21:36:44.072Z,3.5
2018-10-05T21:42:39.076Z,3.66
2018-10-05T21:48:34.087Z,3.7
2018-10-05T21:54:29.086Z,4.34
2018-10-05T22:00:24.112Z,4.1
2018-10-05T22:06:19.124Z,4.4
2018-10-05T22:12:14.141Z,4.6
2018-10-05T22:18:09.104Z,4.37
2018-10-05T22:24:04.088Z,5.05
2018-10-05T22:29:59.113Z,5.25
2018-10-05T22:35:54.088Z,4.57
2018-10-05T22:41:49.102Z,4.6
2018-10-05T22:47:44.125Z,5.04
2018-10-05T22:53:39.144Z,5.32
2018-10-05T22:59:34.112Z,4.93
2018-10-05T23:05:29.122Z,5.53
2018-10-05T23:11:24.165Z,5.24
2018-10-05T23:17:19.137Z,4.87
2018-10-05T23:23:14.157Z,5.32
2018-10-05T23:29:09.136Z,4.73
2018-10-05T23:35:04.200Z,4.71
2018-10-05T23:40:59.141Z,4.73
2018-10-05T23:46:54.146Z,4.73
2018-10-05T23:52:49.155Z,4.9
2018-10-05T23:58:44.178Z,5.13
